sensor_id;sensor_type;location;lat;lon;timestamp;pressure;altitude;pressure_sealevel;temperature;humidity
9855;BME280;4966;48.112;9.282;2024-03-08T00:01:39;94449.63;;;2.22;90.12
9855;BME280;4966;48.112;9.282;2024-03-08T00:04:05;94444.00;;;2.56;88.65
9855;BME280;4966;48.112;9.282;2024-03-08T00:06:31;94450.81;;;2.67;88.02
9855;BME280;4966;48.112;9.282;2024-03-08T00:08:57;94432.47;;;2.88;85.77
9855;BME280;4966;48.112;9.282;2024-03-08T00:11:22;94445.25;;;2.77;85.73
9855;BME280;4966;48.112;9.282;2024-03-08T00:13:51;94451.25;;;2.55;87.55
9855;BME280;4966;48.112;9.282;2024-03-08T00:16:17;94443.38;;;2.26;88.70
9855;BME280;4966;48.112;9.282;2024-03-08T00:18:44;94438.72;;;2.32;89.56
9855;BME280;4966;48.112;9.282;2024-03-08T00:21:10;94447.44;;;2.24;90.31
9855;BME280;4966;48.112;9.282;2024-03-08T00:23:37;94444.69;;;2.29;89.75
9855;BME280;4966;48.112;9.282;2024-03-08T00:26:02;94441.03;;;2.58;87.43
9855;BME280;4966;48.112;9.282;2024-03-08T00:28:29;94443.75;;;2.20;89.58
9855;BME280;4966;48.112;9.282;2024-03-08T00:30:56;94437.78;;;2.42;88.89
9855;BME280;4966;48.112;9.282;2024-03-08T00:33:21;94435.56;;;2.11;89.53
9855;BME280;4966;48.112;9.282;2024-03-08T00:35:46;94433.09;;;2.15;89.13
9855;BME280;4966;48.112;9.282;2024-03-08T00:38:13;94436.06;;;2.65;86.05
9855;BME280;4966;48.112;9.282;2024-03-08T00:40:38;94429.59;;;2.52;86.09
9855;BME280;4966;48.112;9.282;2024-03-08T00:43:05;94428.56;;;2.48;86.62
9855;BME280;4966;48.112;9.282;2024-03-08T00:45:31;94430.56;;;2.23;87.82
9855;BME280;4966;48.112;9.282;2024-03-08T00:47:56;94423.44;;;2.32;88.21
9855;BME280;4966;48.112;9.282;2024-03-08T00:50:22;94421.13;;;2.07;89.06
9855;BME280;4966;48.112;9.282;2024-03-08T00:52:47;94421.91;;;1.88;91.20
9855;BME280;4966;48.112;9.282;2024-03-08T00:55:13;94415.00;;;2.39;87.06
9855;BME280;4966;48.112;9.282;2024-03-08T00:57:38;94420.03;;;2.08;89.36
9855;BME280;4966;48.112;9.282;2024-03-08T01:00:05;94408.38;;;1.80;90.72
9855;BME280;4966;48.112;9.282;2024-03-08T01:02:35;94407.56;;;1.98;89.76
9855;BME280;4966;48.112;9.282;2024-03-08T01:05:01;94400.75;;;1.87;91.14
9855;BME280;4966;48.112;9.282;2024-03-08T01:07:27;94403.94;;;2.08;89.90
9855;BME280;4966;48.112;9.282;2024-03-08T01:09:53;94404.94;;;2.31;88.50
9855;BME280;4966;48.112;9.282;2024-03-08T01:12:18;94408.75;;;2.44;87.29
9855;BME280;4966;48.112;9.282;2024-03-08T01:14:45;94406.84;;;1.74;92.03
9855;BME280;4966;48.112;9.282;2024-03-08T01:17:10;94402.13;;;1.84;91.52
9855;BME280;4966;48.112;9.282;2024-03-08T01:19:37;94396.69;;;1.70;91.70
9855;BME280;4966;48.112;9.282;2024-03-08T01:22:02;94393.78;;;1.67;91.91
9855;BME280;4966;48.112;9.282;2024-03-08T01:24:28;94391.53;;;1.74;92.34
9855;BME280;4966;48.112;9.282;2024-03-08T01:26:54;94387.72;;;1.99;91.23
9855;BME280;4966;48.112;9.282;2024-03-08T01:29:19;94377.84;;;1.95;90.81
9855;BME280;4966;48.112;9.282;2024-03-08T01:31:44;94372.16;;;1.96;90.38
9855;BME280;4966;48.112;9.282;2024-03-08T01:34:10;94370.81;;;1.61;92.20
9855;BME280;4966;48.112;9.282;2024-03-08T01:36:35;94362.88;;;2.07;90.32
9855;BME280;4966;48.112;9.282;2024-03-08T01:39:02;94360.97;;;1.94;90.77
9855;BME280;4966;48.112;9.282;2024-03-08T01:41:33;94357.38;;;1.99;89.87
9855;BME280;4966;48.112;9.282;2024-03-08T01:43:59;94353.69;;;2.13;89.83
9855;BME280;4966;48.112;9.282;2024-03-08T01:46:24;94353.63;;;2.00;90.21
9855;BME280;4966;48.112;9.282;2024-03-08T01:48:50;94352.84;;;1.99;90.59
9855;BME280;4966;48.112;9.282;2024-03-08T01:51:18;94351.81;;;1.95;91.80
9855;BME280;4966;48.112;9.282;2024-03-08T01:53:46;94350.13;;;2.18;89.90
9855;BME280;4966;48.112;9.282;2024-03-08T01:56:12;94350.50;;;1.92;90.67
9855;BME280;4966;48.112;9.282;2024-03-08T01:58:40;94344.34;;;2.11;90.26
9855;BME280;4966;48.112;9.282;2024-03-08T02:01:07;94339.84;;;2.06;89.78
9855;BME280;4966;48.112;9.282;2024-03-08T02:03:34;94341.06;;;2.14;89.87
9855;BME280;4966;48.112;9.282;2024-03-08T02:05:59;94344.09;;;2.26;89.28
9855;BME280;4966;48.112;9.282;2024-03-08T02:08:25;94326.97;;;1.52;92.29
9855;BME280;4966;48.112;9.282;2024-03-08T02:10:50;94339.31;;;2.23;89.55
9855;BME280;4966;48.112;9.282;2024-03-08T02:13:16;94331.38;;;2.32;88.76
9855;BME280;4966;48.112;9.282;2024-03-08T02:15:57;94329.03;;;2.58;87.24
9855;BME280;4966;48.112;9.282;2024-03-08T02:18:27;94329.72;;;2.50;87.95
9855;BME280;4966;48.112;9.282;2024-03-08T02:23:20;94328.53;;;2.56;86.59
9855;BME280;4966;48.112;9.282;2024-03-08T02:25:46;94326.44;;;2.53;86.81
9855;BME280;4966;48.112;9.282;2024-03-08T02:28:12;94325.03;;;2.42;86.85
9855;BME280;4966;48.112;9.282;2024-03-08T02:30:38;94326.34;;;2.44;86.85
9855;BME280;4966;48.112;9.282;2024-03-08T02:33:07;94321.69;;;2.77;84.90
9855;BME280;4966;48.112;9.282;2024-03-08T02:35:34;94325.38;;;2.82;84.69
9855;BME280;4966;48.112;9.282;2024-03-08T02:38:00;94310.94;;;2.77;84.72
9855;BME280;4966;48.112;9.282;2024-03-08T02:40:26;94319.44;;;2.71;85.42
9855;BME280;4966;48.112;9.282;2024-03-08T02:42:51;94311.28;;;2.29;86.76
9855;BME280;4966;48.112;9.282;2024-03-08T02:45:17;94312.22;;;2.52;85.40
9855;BME280;4966;48.112;9.282;2024-03-08T02:47:43;94303.19;;;2.62;84.69
9855;BME280;4966;48.112;9.282;2024-03-08T02:50:08;94308.06;;;2.60;85.94
9855;BME280;4966;48.112;9.282;2024-03-08T02:52:34;94309.50;;;2.39;85.75
9855;BME280;4966;48.112;9.282;2024-03-08T02:55:01;94295.22;;;2.43;85.40
9855;BME280;4966;48.112;9.282;2024-03-08T02:57:26;94295.66;;;2.78;84.18
9855;BME280;4966;48.112;9.282;2024-03-08T02:59:53;94298.31;;;3.06;83.07
9855;BME280;4966;48.112;9.282;2024-03-08T03:02:18;94300.13;;;2.96;83.26
9855;BME280;4966;48.112;9.282;2024-03-08T03:04:44;94295.44;;;2.14;85.76
9855;BME280;4966;48.112;9.282;2024-03-08T03:07:09;94288.28;;;2.70;84.08
9855;BME280;4966;48.112;9.282;2024-03-08T03:09:34;94285.50;;;2.89;83.59
9855;BME280;4966;48.112;9.282;2024-03-08T03:12:00;94296.16;;;2.66;84.24
9855;BME280;4966;48.112;9.282;2024-03-08T03:14:25;94282.19;;;2.92;83.06
9855;BME280;4966;48.112;9.282;2024-03-08T03:16:54;94287.06;;;3.17;81.38
9855;BME280;4966;48.112;9.282;2024-03-08T03:19:20;94294.56;;;3.07;82.49
9855;BME280;4966;48.112;9.282;2024-03-08T03:21:46;94285.78;;;3.01;82.47
9855;BME280;4966;48.112;9.282;2024-03-08T03:24:12;94287.75;;;3.23;81.68
9855;BME280;4966;48.112;9.282;2024-03-08T03:26:41;94277.94;;;2.77;82.84
9855;BME280;4966;48.112;9.282;2024-03-08T03:29:09;94283.72;;;2.98;81.66
9855;BME280;4966;48.112;9.282;2024-03-08T03:31:37;94273.47;;;2.59;83.90
9855;BME280;4966;48.112;9.282;2024-03-08T03:34:03;94269.28;;;2.66;83.27
9855;BME280;4966;48.112;9.282;2024-03-08T03:36:32;94273.56;;;2.67;82.96
9855;BME280;4966;48.112;9.282;2024-03-08T03:38:58;94268.59;;;2.88;82.52
9855;BME280;4966;48.112;9.282;2024-03-08T03:41:35;94260.63;;;2.55;82.96
9855;BME280;4966;48.112;9.282;2024-03-08T03:44:01;94273.97;;;2.74;82.94
9855;BME280;4966;48.112;9.282;2024-03-08T03:46:26;94273.06;;;2.65;83.00
9855;BME280;4966;48.112;9.282;2024-03-08T03:48:53;94258.84;;;2.79;82.70
9855;BME280;4966;48.112;9.282;2024-03-08T03:51:18;94260.88;;;2.26;84.40
9855;BME280;4966;48.112;9.282;2024-03-08T03:53:45;94261.34;;;2.15;85.76
9855;BME280;4966;48.112;9.282;2024-03-08T03:56:10;94256.53;;;2.30;85.01
9855;BME280;4966;48.112;9.282;2024-03-08T03:58:36;94264.88;;;2.43;84.87
9855;BME280;4966;48.112;9.282;2024-03-08T04:01:01;94261.47;;;2.23;85.41
9855;BME280;4966;48.112;9.282;2024-03-08T04:03:29;94255.63;;;2.49;84.87
9855;BME280;4966;48.112;9.282;2024-03-08T04:05:54;94256.34;;;2.82;83.33
9855;BME280;4966;48.112;9.282;2024-03-08T04:08:20;94252.47;;;2.61;83.24
9855;BME280;4966;48.112;9.282;2024-03-08T04:10:46;94253.25;;;2.01;85.72
9855;BME280;4966;48.112;9.282;2024-03-08T04:13:11;94254.31;;;1.86;87.33
9855;BME280;4966;48.112;9.282;2024-03-08T04:15:36;94248.72;;;1.49;89.62
9855;BME280;4966;48.112;9.282;2024-03-08T04:18:03;94244.78;;;2.26;86.38
9855;BME280;4966;48.112;9.282;2024-03-08T04:20:29;94244.66;;;2.18;85.81
9855;BME280;4966;48.112;9.282;2024-03-08T04:22:54;94244.31;;;2.38;85.40
9855;BME280;4966;48.112;9.282;2024-03-08T04:25:20;94243.91;;;2.45;84.84
9855;BME280;4966;48.112;9.282;2024-03-08T04:27:46;94244.53;;;1.95;86.70
9855;BME280;4966;48.112;9.282;2024-03-08T04:30:12;94248.00;;;1.96;87.40
9855;BME280;4966;48.112;9.282;2024-03-08T04:32:38;94245.63;;;2.08;87.47
9855;BME280;4966;48.112;9.282;2024-03-08T04:35:03;94240.44;;;1.98;87.47
9855;BME280;4966;48.112;9.282;2024-03-08T04:37:29;94244.66;;;1.52;89.72
9855;BME280;4966;48.112;9.282;2024-03-08T04:39:55;94238.84;;;1.64;89.88
9855;BME280;4966;48.112;9.282;2024-03-08T04:42:20;94237.97;;;1.68;89.71
9855;BME280;4966;48.112;9.282;2024-03-08T04:44:46;94238.38;;;1.95;88.11
9855;BME280;4966;48.112;9.282;2024-03-08T04:47:12;94220.69;;;1.75;89.93
9855;BME280;4966;48.112;9.282;2024-03-08T04:49:37;94230.03;;;2.10;87.81
9855;BME280;4966;48.112;9.282;2024-03-08T04:52:03;94233.50;;;1.97;87.86
9855;BME280;4966;48.112;9.282;2024-03-08T04:54:30;94219.31;;;1.77;88.97
9855;BME280;4966;48.112;9.282;2024-03-08T04:56:55;94217.75;;;1.76;88.97
9855;BME280;4966;48.112;9.282;2024-03-08T04:59:21;94223.56;;;1.97;88.21
9855;BME280;4966;48.112;9.282;2024-03-08T05:01:46;94219.41;;;2.05;88.62
9855;BME280;4966;48.112;9.282;2024-03-08T05:04:13;94224.16;;;2.08;88.08
9855;BME280;4966;48.112;9.282;2024-03-08T05:06:38;94215.53;;;2.25;86.70
9855;BME280;4966;48.112;9.282;2024-03-08T05:09:04;94219.63;;;2.22;87.17
9855;BME280;4966;48.112;9.282;2024-03-08T05:11:40;94217.69;;;1.95;87.06
9855;BME280;4966;48.112;9.282;2024-03-08T05:14:05;94217.41;;;1.97;88.39
9855;BME280;4966;48.112;9.282;2024-03-08T05:16:31;94230.34;;;2.22;86.90
9855;BME280;4966;48.112;9.282;2024-03-08T05:18:56;94229.66;;;2.17;86.98
9855;BME280;4966;48.112;9.282;2024-03-08T05:21:22;94220.00;;;2.02;87.94
9855;BME280;4966;48.112;9.282;2024-03-08T05:23:48;94225.56;;;1.40;89.86
9855;BME280;4966;48.112;9.282;2024-03-08T05:26:15;94212.78;;;1.83;88.89
9855;BME280;4966;48.112;9.282;2024-03-08T05:28:41;94207.19;;;1.66;89.35
9855;BME280;4966;48.112;9.282;2024-03-08T05:31:06;94218.63;;;1.72;89.89
9855;BME280;4966;48.112;9.282;2024-03-08T05:33:32;94223.66;;;2.06;87.67
9855;BME280;4966;48.112;9.282;2024-03-08T05:36:00;94213.44;;;2.08;87.60
9855;BME280;4966;48.112;9.282;2024-03-08T05:38:26;94213.75;;;2.06;87.54
9855;BME280;4966;48.112;9.282;2024-03-08T05:40:51;94219.31;;;1.77;89.72
9855;BME280;4966;48.112;9.282;2024-03-08T05:43:16;94213.38;;;1.80;88.73
9855;BME280;4966;48.112;9.282;2024-03-08T05:45:45;94223.22;;;1.52;90.18
9855;BME280;4966;48.112;9.282;2024-03-08T05:48:10;94219.00;;;1.98;89.35
9855;BME280;4966;48.112;9.282;2024-03-08T05:50:38;94214.03;;;1.39;91.19
9855;BME280;4966;48.112;9.282;2024-03-08T05:53:04;94223.16;;;1.90;89.58
9855;BME280;4966;48.112;9.282;2024-03-08T05:55:32;94215.66;;;2.33;86.96
9855;BME280;4966;48.112;9.282;2024-03-08T05:58:01;94205.56;;;1.51;89.83
9855;BME280;4966;48.112;9.282;2024-03-08T06:00:27;94210.34;;;1.87;89.44
9855;BME280;4966;48.112;9.282;2024-03-08T06:02:52;94207.97;;;2.13;88.05
9855;BME280;4966;48.112;9.282;2024-03-08T06:05:18;94211.84;;;2.07;88.18
9855;BME280;4966;48.112;9.282;2024-03-08T06:07:44;94210.00;;;2.49;86.25
9855;BME280;4966;48.112;9.282;2024-03-08T06:10:10;94214.69;;;2.43;86.07
9855;BME280;4966;48.112;9.282;2024-03-08T06:12:36;94213.88;;;2.29;85.85
9855;BME280;4966;48.112;9.282;2024-03-08T06:15:08;94208.19;;;2.17;87.10
9855;BME280;4966;48.112;9.282;2024-03-08T06:17:38;94210.09;;;2.44;86.31
9855;BME280;4966;48.112;9.282;2024-03-08T06:20:03;94203.91;;;1.69;88.49
9855;BME280;4966;48.112;9.282;2024-03-08T06:22:36;94204.25;;;2.28;87.13
9855;BME280;4966;48.112;9.282;2024-03-08T06:25:01;94206.91;;;2.42;86.96
9855;BME280;4966;48.112;9.282;2024-03-08T06:27:27;94211.84;;;2.07;87.02
9855;BME280;4966;48.112;9.282;2024-03-08T06:29:52;94208.69;;;1.72;89.31
9855;BME280;4966;48.112;9.282;2024-03-08T06:32:17;94198.63;;;2.10;87.64
9855;BME280;4966;48.112;9.282;2024-03-08T06:34:44;94218.75;;;2.54;85.56
9855;BME280;4966;48.112;9.282;2024-03-08T06:37:09;94208.06;;;2.08;86.63
9855;BME280;4966;48.112;9.282;2024-03-08T06:39:34;94210.28;;;2.33;86.27
9855;BME280;4966;48.112;9.282;2024-03-08T06:42:01;94211.16;;;2.15;87.08
9855;BME280;4966;48.112;9.282;2024-03-08T06:44:26;94212.41;;;2.64;84.70
9855;BME280;4966;48.112;9.282;2024-03-08T06:46:52;94205.13;;;2.51;85.18
9855;BME280;4966;48.112;9.282;2024-03-08T06:49:17;94218.97;;;2.44;85.27
9855;BME280;4966;48.112;9.282;2024-03-08T06:51:43;94212.09;;;2.52;85.02
9855;BME280;4966;48.112;9.282;2024-03-08T06:54:11;94209.38;;;1.97;88.02
9855;BME280;4966;48.112;9.282;2024-03-08T06:56:36;94204.88;;;2.06;87.09
9855;BME280;4966;48.112;9.282;2024-03-08T06:59:05;94208.38;;;2.06;86.76
9855;BME280;4966;48.112;9.282;2024-03-08T07:01:31;94205.75;;;1.55;88.98
9855;BME280;4966;48.112;9.282;2024-03-08T07:03:57;94213.19;;;2.23;87.15
9855;BME280;4966;48.112;9.282;2024-03-08T07:06:23;94211.75;;;2.12;87.48
9855;BME280;4966;48.112;9.282;2024-03-08T07:08:48;94211.09;;;1.74;87.65
9855;BME280;4966;48.112;9.282;2024-03-08T07:11:14;94212.78;;;2.16;85.91
9855;BME280;4966;48.112;9.282;2024-03-08T07:13:44;94217.66;;;2.42;85.62
9855;BME280;4966;48.112;9.282;2024-03-08T07:16:10;94209.50;;;2.33;86.30
9855;BME280;4966;48.112;9.282;2024-03-08T07:18:37;94210.38;;;2.70;83.97
9855;BME280;4966;48.112;9.282;2024-03-08T07:21:05;94201.97;;;2.35;85.15
9855;BME280;4966;48.112;9.282;2024-03-08T07:23:30;94204.81;;;2.25;85.29
9855;BME280;4966;48.112;9.282;2024-03-08T07:26:17;94201.06;;;2.26;84.92
9855;BME280;4966;48.112;9.282;2024-03-08T07:28:44;94188.50;;;2.07;85.57
9855;BME280;4966;48.112;9.282;2024-03-08T07:31:09;94192.47;;;2.10;85.85
9855;BME280;4966;48.112;9.282;2024-03-08T07:33:42;94199.00;;;1.90;86.84
9855;BME280;4966;48.112;9.282;2024-03-08T07:36:08;94189.03;;;1.63;88.57
9855;BME280;4966;48.112;9.282;2024-03-08T07:38:33;94204.41;;;1.38;90.29
9855;BME280;4966;48.112;9.282;2024-03-08T07:41:00;94198.00;;;1.86;87.98
9855;BME280;4966;48.112;9.282;2024-03-08T07:43:25;94190.41;;;2.07;87.09
9855;BME280;4966;48.112;9.282;2024-03-08T07:45:51;94189.28;;;2.08;86.47
9855;BME280;4966;48.112;9.282;2024-03-08T07:48:18;94191.19;;;2.49;85.47
9855;BME280;4966;48.112;9.282;2024-03-08T07:50:43;94202.91;;;1.98;87.56
9855;BME280;4966;48.112;9.282;2024-03-08T07:53:09;94200.66;;;2.32;85.24
9855;BME280;4966;48.112;9.282;2024-03-08T07:55:35;94185.63;;;2.31;86.01
9855;BME280;4966;48.112;9.282;2024-03-08T07:58:04;94183.75;;;2.46;85.28
9855;BME280;4966;48.112;9.282;2024-03-08T08:00:30;94195.97;;;2.80;83.40
9855;BME280;4966;48.112;9.282;2024-03-08T08:02:56;94187.81;;;2.43;84.29
9855;BME280;4966;48.112;9.282;2024-03-08T08:05:22;94188.72;;;2.11;85.65
9855;BME280;4966;48.112;9.282;2024-03-08T08:07:47;94183.34;;;2.11;86.66
9855;BME280;4966;48.112;9.282;2024-03-08T08:10:13;94190.50;;;2.29;86.22
9855;BME280;4966;48.112;9.282;2024-03-08T08:12:48;94182.78;;;2.28;86.20
9855;BME280;4966;48.112;9.282;2024-03-08T08:15:14;94188.22;;;2.37;85.02
9855;BME280;4966;48.112;9.282;2024-03-08T08:17:43;94183.03;;;2.82;83.63
9855;BME280;4966;48.112;9.282;2024-03-08T08:20:10;94175.41;;;2.61;84.77
9855;BME280;4966;48.112;9.282;2024-03-08T08:22:37;94177.38;;;2.14;86.03
9855;BME280;4966;48.112;9.282;2024-03-08T08:25:03;94174.19;;;2.67;84.27
9855;BME280;4966;48.112;9.282;2024-03-08T08:27:29;94182.97;;;3.09;83.28
9855;BME280;4966;48.112;9.282;2024-03-08T08:29:54;94181.50;;;3.03;82.60
9855;BME280;4966;48.112;9.282;2024-03-08T08:32:21;94179.72;;;2.85;82.43
9855;BME280;4966;48.112;9.282;2024-03-08T08:34:46;94173.69;;;3.15;82.10
9855;BME280;4966;48.112;9.282;2024-03-08T08:37:12;94179.16;;;2.88;81.87
9855;BME280;4966;48.112;9.282;2024-03-08T08:39:37;94178.47;;;3.18;82.19
9855;BME280;4966;48.112;9.282;2024-03-08T08:42:03;94180.69;;;3.39;81.34
9855;BME280;4966;48.112;9.282;2024-03-08T08:44:29;94171.91;;;3.11;80.49
9855;BME280;4966;48.112;9.282;2024-03-08T08:46:56;94169.16;;;3.38;80.37
9855;BME280;4966;48.112;9.282;2024-03-08T08:49:22;94172.41;;;2.63;82.24
9855;BME280;4966;48.112;9.282;2024-03-08T08:51:52;94167.81;;;2.77;83.34
9855;BME280;4966;48.112;9.282;2024-03-08T08:54:18;94173.00;;;2.73;82.61
9855;BME280;4966;48.112;9.282;2024-03-08T08:56:44;94171.22;;;2.13;84.79
9855;BME280;4966;48.112;9.282;2024-03-08T08:59:09;94166.06;;;2.17;87.07
9855;BME280;4966;48.112;9.282;2024-03-08T09:01:39;94161.41;;;2.23;85.92
9855;BME280;4966;48.112;9.282;2024-03-08T09:04:07;94159.09;;;2.02;86.26
9855;BME280;4966;48.112;9.282;2024-03-08T09:06:33;94147.34;;;1.98;86.60
9855;BME280;4966;48.112;9.282;2024-03-08T09:08:59;94154.63;;;2.25;86.33
9855;BME280;4966;48.112;9.282;2024-03-08T09:11:27;94155.41;;;2.53;85.10
9855;BME280;4966;48.112;9.282;2024-03-08T09:13:52;94147.06;;;2.41;84.17
9855;BME280;4966;48.112;9.282;2024-03-08T09:16:18;94147.94;;;2.64;84.71
9855;BME280;4966;48.112;9.282;2024-03-08T09:18:44;94146.56;;;2.53;84.71
9855;BME280;4966;48.112;9.282;2024-03-08T09:21:09;94146.09;;;2.87;83.37
9855;BME280;4966;48.112;9.282;2024-03-08T09:23:36;94150.13;;;2.76;83.15
9855;BME280;4966;48.112;9.282;2024-03-08T09:26:01;94154.63;;;3.03;82.04
9855;BME280;4966;48.112;9.282;2024-03-08T09:28:28;94145.16;;;2.55;82.64
9855;BME280;4966;48.112;9.282;2024-03-08T09:30:53;94142.91;;;2.35;83.96
9855;BME280;4966;48.112;9.282;2024-03-08T09:33:20;94143.38;;;2.65;84.03
9855;BME280;4966;48.112;9.282;2024-03-08T09:35:46;94141.38;;;3.07;82.46
9855;BME280;4966;48.112;9.282;2024-03-08T09:38:12;94136.38;;;3.59;80.36
9855;BME280;4966;48.112;9.282;2024-03-08T09:40:40;94139.97;;;3.54;80.19
9855;BME280;4966;48.112;9.282;2024-03-08T09:43:06;94134.53;;;3.68;78.96
9855;BME280;4966;48.112;9.282;2024-03-08T09:45:36;94142.41;;;3.87;78.05
9855;BME280;4966;48.112;9.282;2024-03-08T09:48:01;94143.09;;;3.70;76.93
9855;BME280;4966;48.112;9.282;2024-03-08T09:50:27;94128.91;;;4.18;76.93
9855;BME280;4966;48.112;9.282;2024-03-08T09:52:55;94135.72;;;4.16;77.14
9855;BME280;4966;48.112;9.282;2024-03-08T09:55:22;94125.69;;;4.39;75.48
9855;BME280;4966;48.112;9.282;2024-03-08T09:57:47;94127.19;;;4.71;75.38
9855;BME280;4966;48.112;9.282;2024-03-08T10:00:33;94122.94;;;4.21;74.97
9855;BME280;4966;48.112;9.282;2024-03-08T10:03:02;94119.56;;;4.16;75.54
9855;BME280;4966;48.112;9.282;2024-03-08T10:05:28;94123.47;;;4.50;75.03
9855;BME280;4966;48.112;9.282;2024-03-08T10:07:55;94115.25;;;4.46;74.31
9855;BME280;4966;48.112;9.282;2024-03-08T10:10:20;94109.63;;;4.25;75.00
9855;BME280;4966;48.112;9.282;2024-03-08T10:12:48;94107.66;;;4.57;74.50
9855;BME280;4966;48.112;9.282;2024-03-08T10:15:15;94096.25;;;4.51;73.52
9855;BME280;4966;48.112;9.282;2024-03-08T10:17:42;94104.38;;;4.77;72.90
9855;BME280;4966;48.112;9.282;2024-03-08T10:20:15;94111.34;;;5.22;72.78
9855;BME280;4966;48.112;9.282;2024-03-08T10:22:41;94097.38;;;5.46;71.34
9855;BME280;4966;48.112;9.282;2024-03-08T10:25:11;94089.16;;;5.16;70.72
9855;BME280;4966;48.112;9.282;2024-03-08T10:27:42;94090.06;;;5.64;70.13
9855;BME280;4966;48.112;9.282;2024-03-08T10:30:14;94087.59;;;5.15;70.22
9855;BME280;4966;48.112;9.282;2024-03-08T10:32:40;94080.44;;;4.76;71.99
9855;BME280;4966;48.112;9.282;2024-03-08T10:35:07;94086.94;;;5.09;71.47
9855;BME280;4966;48.112;9.282;2024-03-08T10:37:38;94094.72;;;5.20;70.88
9855;BME280;4966;48.112;9.282;2024-03-08T10:40:10;94079.94;;;5.52;69.68
9855;BME280;4966;48.112;9.282;2024-03-08T10:42:45;94086.03;;;5.87;69.41
9855;BME280;4966;48.112;9.282;2024-03-08T10:50:49;94084.78;;;5.76;69.46
9855;BME280;4966;48.112;9.282;2024-03-08T10:53:17;94086.66;;;6.02;67.59
9855;BME280;4966;48.112;9.282;2024-03-08T10:55:43;94079.69;;;5.83;67.31
9855;BME280;4966;48.112;9.282;2024-03-08T10:58:09;94088.09;;;5.90;68.47
9855;BME280;4966;48.112;9.282;2024-03-08T11:00:35;94080.91;;;6.03;67.28
9855;BME280;4966;48.112;9.282;2024-03-08T11:03:02;94082.19;;;5.32;67.34
9855;BME280;4966;48.112;9.282;2024-03-08T11:05:47;94084.91;;;5.97;67.58
9855;BME280;4966;48.112;9.282;2024-03-08T11:08:20;94072.44;;;5.75;68.01
9855;BME280;4966;48.112;9.282;2024-03-08T11:10:52;94076.78;;;5.32;69.54
9855;BME280;4966;48.112;9.282;2024-03-08T11:13:37;94066.44;;;5.52;68.85
9855;BME280;4966;48.112;9.282;2024-03-08T11:16:07;94059.91;;;5.70;67.99
9855;BME280;4966;48.112;9.282;2024-03-08T11:18:35;94065.19;;;5.41;70.26
9855;BME280;4966;48.112;9.282;2024-03-08T11:21:04;94051.88;;;5.36;68.57
9855;BME280;4966;48.112;9.282;2024-03-08T11:23:33;94050.50;;;5.03;69.45
9855;BME280;4966;48.112;9.282;2024-03-08T11:25:59;94051.31;;;5.68;68.68
9855;BME280;4966;48.112;9.282;2024-03-08T11:28:25;94052.69;;;5.83;68.16
9855;BME280;4966;48.112;9.282;2024-03-08T11:33:27;94053.97;;;6.24;67.55
9855;BME280;4966;48.112;9.282;2024-03-08T11:36:11;94052.88;;;5.78;67.69
9855;BME280;4966;48.112;9.282;2024-03-08T11:38:42;94054.25;;;5.93;68.26
9855;BME280;4966;48.112;9.282;2024-03-08T11:41:09;94049.22;;;4.92;69.39
9855;BME280;4966;48.112;9.282;2024-03-08T11:43:38;94043.34;;;5.16;70.08
9855;BME280;4966;48.112;9.282;2024-03-08T11:46:09;94039.03;;;5.32;69.52
9855;BME280;4966;48.112;9.282;2024-03-08T11:48:34;94033.34;;;4.99;70.23
9855;BME280;4966;48.112;9.282;2024-03-08T11:51:01;94040.00;;;5.02;70.25
9855;BME280;4966;48.112;9.282;2024-03-08T11:53:27;94038.38;;;4.22;72.45
9855;BME280;4966;48.112;9.282;2024-03-08T11:55:52;94032.00;;;4.10;74.83
9855;BME280;4966;48.112;9.282;2024-03-08T11:58:18;94035.81;;;4.17;74.57
9855;BME280;4966;48.112;9.282;2024-03-08T12:00:43;94033.03;;;4.83;73.51
9855;BME280;4966;48.112;9.282;2024-03-08T12:03:11;94030.94;;;4.19;73.11
9855;BME280;4966;48.112;9.282;2024-03-08T12:05:37;94027.31;;;4.76;72.50
9855;BME280;4966;48.112;9.282;2024-03-08T12:08:03;94023.53;;;4.86;72.79
9855;BME280;4966;48.112;9.282;2024-03-08T12:10:32;94025.91;;;4.79;73.33
9855;BME280;4966;48.112;9.282;2024-03-08T12:12:58;94020.34;;;4.49;72.57
9855;BME280;4966;48.112;9.282;2024-03-08T12:15:29;94003.81;;;5.29;71.80
9855;BME280;4966;48.112;9.282;2024-03-08T12:17:55;94010.34;;;5.19;70.40
9855;BME280;4966;48.112;9.282;2024-03-08T12:20:23;94007.47;;;5.80;68.99
9855;BME280;4966;48.112;9.282;2024-03-08T12:22:50;94014.59;;;5.38;68.97
9855;BME280;4966;48.112;9.282;2024-03-08T12:25:18;94009.25;;;4.85;69.98
9855;BME280;4966;48.112;9.282;2024-03-08T12:27:44;94015.41;;;5.21;71.81
9855;BME280;4966;48.112;9.282;2024-03-08T12:30:23;93998.53;;;5.97;68.68
9855;BME280;4966;48.112;9.282;2024-03-08T12:32:57;94002.38;;;5.79;69.30
9855;BME280;4966;48.112;9.282;2024-03-08T12:35:27;93995.44;;;6.58;66.92
9855;BME280;4966;48.112;9.282;2024-03-08T12:37:54;93995.19;;;6.51;65.99
9855;BME280;4966;48.112;9.282;2024-03-08T12:40:27;93974.50;;;6.76;65.36
9855;BME280;4966;48.112;9.282;2024-03-08T12:42:55;93971.53;;;6.90;64.55
9855;BME280;4966;48.112;9.282;2024-03-08T12:45:21;93972.00;;;6.50;65.09
9855;BME280;4966;48.112;9.282;2024-03-08T12:47:52;93973.38;;;6.05;66.82
9855;BME280;4966;48.112;9.282;2024-03-08T12:50:18;93969.19;;;5.48;67.35
9855;BME280;4966;48.112;9.282;2024-03-08T12:52:44;93964.66;;;5.23;69.85
9855;BME280;4966;48.112;9.282;2024-03-08T12:55:09;93953.28;;;5.08;70.40
9855;BME280;4966;48.112;9.282;2024-03-08T12:57:36;93952.81;;;5.92;68.78
9855;BME280;4966;48.112;9.282;2024-03-08T13:00:03;93962.13;;;5.18;69.15
9855;BME280;4966;48.112;9.282;2024-03-08T13:02:29;93965.75;;;5.22;69.63
9855;BME280;4966;48.112;9.282;2024-03-08T13:04:56;93953.34;;;5.38;70.25
9855;BME280;4966;48.112;9.282;2024-03-08T13:07:25;93942.63;;;5.12;69.99
9855;BME280;4966;48.112;9.282;2024-03-08T13:09:53;93948.22;;;5.84;69.44
9855;BME280;4966;48.112;9.282;2024-03-08T13:12:28;93939.13;;;6.48;66.54
9855;BME280;4966;48.112;9.282;2024-03-08T13:14:54;93946.03;;;5.39;67.60
9855;BME280;4966;48.112;9.282;2024-03-08T13:17:21;93950.22;;;5.27;69.63
9855;BME280;4966;48.112;9.282;2024-03-08T13:19:47;93940.69;;;6.28;67.26
9855;BME280;4966;48.112;9.282;2024-03-08T13:22:13;93943.94;;;5.83;66.44
9855;BME280;4966;48.112;9.282;2024-03-08T13:24:42;93931.66;;;6.24;65.51
9855;BME280;4966;48.112;9.282;2024-03-08T13:27:10;93936.13;;;5.99;66.23
9855;BME280;4966;48.112;9.282;2024-03-08T13:29:45;93928.19;;;6.23;65.76
9855;BME280;4966;48.112;9.282;2024-03-08T13:32:11;93933.16;;;6.12;64.92
9855;BME280;4966;48.112;9.282;2024-03-08T13:34:40;93915.97;;;6.59;64.99
9855;BME280;4966;48.112;9.282;2024-03-08T13:37:06;93906.06;;;7.42;64.62
9855;BME280;4966;48.112;9.282;2024-03-08T13:39:31;93899.81;;;8.27;61.61
9855;BME280;4966;48.112;9.282;2024-03-08T13:42:07;93896.94;;;8.61;59.24